Terminal Aerodrome Forecast
Issued by NWS

Home | Current Version | Previous Version | Text Only | Print | Product List | Glossary On
Versions: 1 2 3 4 5 6 7 8 9 10 11 12 13 14 15 16 17 18
000
FTUS43 KDMX 232320
TAFMCW
TAF
KMCW 232320Z 2400/2424 34015KT P6SM FEW035 FEW050
     FM240200 35006KT P6SM FEW040
     FM241000 03004KT 4SM BR FEW060
      TEMPO 2411/2413 03004KT 1SM BR BKN015
     FM241400 09004KT P6SM BKN050=

USA.gov is the U.S. government's official web portal to all federal, state and local government web resources and services.